Columbine Valley, Colorado
Current Conditions -  °F | °C
As of 7:53 PM on Friday 24 Oct 2014 (Local Time) from KAPA Reporting Station
Clear Clear  
Wind Chill: 61°   Ceiling: Unl
Heat Index: 61°   Visibility: 10mi
Dew Point: 27°   Wind: 6mph
Humidity: 27%   Direction: 170°S
Pressure: 30.22"   Gusts: NA
Location:  39.5977°N, 105.071°W
Report Text: KAPA 250153Z 17005KT 10SM CLR 16/M03 A3022 RMK AO2 SLP189 T01611028
Loading
Personal Weather Stations






























Interactive Weather Map
Tropical Storm Tracking
New forecast layout! Learn more

10-Day Weather Forecast

Advertisements
Track Severe Weather on mobile